createdAt,value
2023-03-02T00:01:10.468Z,101180.03
2023-03-02T00:03:39.974Z,101179.41
2023-03-02T00:06:09.033Z,101180.66
2023-03-02T00:08:37.420Z,101180.50
2023-03-02T00:11:04.747Z,101173.47
2023-03-02T00:13:34.537Z,101178.00
2023-03-02T00:16:01.518Z,101177.22
2023-03-02T00:18:28.503Z,101169.28
2023-03-02T00:20:56.452Z,101169.50
2023-03-02T00:23:23.366Z,101167.78
2023-03-02T00:25:50.256Z,101174.09
2023-03-02T00:28:17.108Z,101175.06
2023-03-02T00:30:44.074Z,101175.16
2023-03-02T00:33:10.956Z,101177.81
2023-03-02T00:35:42.019Z,101174.28
2023-03-02T00:38:09.356Z,101176.09
2023-03-02T00:40:36.631Z,101179.69
2023-03-02T00:43:03.800Z,101178.91
2023-03-02T00:45:30.972Z,101184.38
2023-03-02T00:47:58.589Z,101180.13
2023-03-02T00:50:25.512Z,101179.31
2023-03-02T00:52:52.518Z,101172.28
2023-03-02T00:55:19.638Z,101174.84
2023-03-02T00:57:55.090Z,101166.88
2023-03-02T01:00:28.672Z,101164.41
2023-03-02T01:02:59.699Z,101160.97
2023-03-02T01:05:26.773Z,101163.63
2023-03-02T01:07:53.713Z,101170.72
2023-03-02T01:10:20.686Z,101178.81
2023-03-02T01:12:47.683Z,101173.91
2023-03-02T01:15:14.633Z,101176.50
2023-03-02T01:17:43.196Z,101171.38
2023-03-02T01:20:11.554Z,101170.47
2023-03-02T01:22:38.495Z,101168.91
2023-03-02T01:25:06.269Z,101169.75
2023-03-02T01:27:33.219Z,101163.78
2023-03-02T01:30:00.172Z,101169.19
2023-03-02T01:32:27.528Z,101156.91
2023-03-02T01:34:54.695Z,101167.50
2023-03-02T01:37:23.051Z,101163.03
2023-03-02T01:39:50.720Z,101162.97
2023-03-02T01:42:18.207Z,101162.50
2023-03-02T01:44:48.656Z,101155.47
2023-03-02T01:47:25.648Z,101157.28
2023-03-02T01:50:23.384Z,101156.09
2023-03-02T01:52:55.372Z,101146.13
2023-03-02T01:55:26.210Z,101147.59
2023-03-02T01:57:55.236Z,101141.47
2023-03-02T02:00:31.833Z,101137.88
2023-03-02T02:03:08.885Z,101141.59
2023-03-02T02:05:41.241Z,101143.16
2023-03-02T02:08:10.065Z,101137.00
2023-03-02T02:14:20.067Z,101133.44
2023-03-02T02:16:47.261Z,101125.56
2023-03-02T02:19:50.658Z,101132.56
2023-03-02T02:22:30.649Z,101132.44
2023-03-02T02:25:04.202Z,101129.69
2023-03-02T02:27:33.866Z,101128.75
2023-03-02T02:30:05.438Z,101126.81
2023-03-02T02:32:37.117Z,101127.66
2023-03-02T02:35:13.037Z,101128.53
2023-03-02T02:38:02.669Z,101123.22
2023-03-02T02:40:58.918Z,101132.91
2023-03-02T02:43:32.389Z,101123.09
2023-03-02T02:46:01.387Z,101117.47
2023-03-02T02:48:31.359Z,101129.94
2023-03-02T02:51:00.649Z,101112.16
2023-03-02T02:53:35.302Z,101109.59
2023-03-02T02:56:05.290Z,101116.75
2023-03-02T02:58:37.757Z,101117.63
2023-03-02T03:01:06.987Z,101125.41
2023-03-02T03:03:38.441Z,101126.34
2023-03-02T03:06:21.119Z,101121.66
2023-03-02T03:08:55.932Z,101120.59
2023-03-02T03:11:34.800Z,101126.03
2023-03-02T03:14:16.167Z,101125.03
2023-03-02T03:16:47.873Z,101122.47
2023-03-02T03:19:27.246Z,101118.88
2023-03-02T03:21:57.959Z,101110.00
2023-03-02T03:24:28.599Z,101111.00
2023-03-02T03:26:56.128Z,101110.81
2023-03-02T03:29:25.541Z,101117.31
2023-03-02T03:31:57.513Z,101122.47
2023-03-02T03:34:25.979Z,101113.56
2023-03-02T03:36:54.167Z,101108.28
2023-03-02T03:39:21.901Z,101116.13
2023-03-02T03:41:50.407Z,101115.13
2023-03-02T03:44:17.561Z,101122.16
2023-03-02T03:46:45.006Z,101113.28
2023-03-02T03:49:12.361Z,101116.84
2023-03-02T03:51:40.116Z,101114.09
2023-03-02T03:54:08.787Z,101122.91
2023-03-02T03:56:42.894Z,101125.56
2023-03-02T03:59:13.955Z,101126.41
2023-03-02T04:01:49.430Z,101128.22
2023-03-02T04:04:20.737Z,101129.06
2023-03-02T04:06:49.020Z,101140.53
2023-03-02T04:09:18.151Z,101132.53
2023-03-02T04:11:47.844Z,101134.31
2023-03-02T04:14:16.378Z,101141.47
2023-03-02T04:16:44.510Z,101136.88
2023-03-02T04:19:13.384Z,101140.47
2023-03-02T04:21:45.362Z,101132.59
2023-03-02T04:24:14.720Z,101134.31
2023-03-02T04:26:43.007Z,101136.78
2023-03-02T04:29:11.483Z,101132.41
2023-03-02T04:31:39.767Z,101128.84
2023-03-02T04:34:07.891Z,101135.84
2023-03-02T04:36:39.847Z,101128.69
2023-03-02T04:39:11.093Z,101130.25
2023-03-02T04:41:38.173Z,101124.94
2023-03-02T04:44:05.370Z,101130.09
2023-03-02T04:46:34.826Z,101126.50
2023-03-02T04:49:02.245Z,101128.22
2023-03-02T04:51:31.887Z,101130.81
2023-03-02T04:54:02.045Z,101129.16
2023-03-02T04:56:29.399Z,101130.88
2023-03-02T04:58:56.838Z,101138.97
2023-03-02T05:01:24.712Z,101144.44
2023-03-02T05:03:51.965Z,101148.88
2023-03-02T05:06:21.863Z,101153.50
2023-03-02T05:08:49.201Z,101144.91
2023-03-02T05:11:22.674Z,101152.06
2023-03-02T05:13:57.924Z,101151.38
2023-03-02T05:16:26.458Z,101148.09
2023-03-02T05:18:53.365Z,101148.09
2023-03-02T05:21:20.332Z,101155.13
2023-03-02T05:23:47.502Z,101156.13
2023-03-02T05:26:15.014Z,101152.69
2023-03-02T05:28:42.417Z,101163.44
2023-03-02T05:31:10.684Z,101160.88
2023-03-02T05:33:37.643Z,101161.88
2023-03-02T05:36:04.849Z,101162.03
2023-03-02T05:38:31.840Z,101167.50
2023-03-02T05:40:59.119Z,101172.94
2023-03-02T05:43:26.044Z,101166.94
2023-03-02T05:45:52.946Z,101170.53
2023-03-02T05:48:19.854Z,101179.63
2023-03-02T05:50:46.798Z,101182.59
2023-03-02T05:53:13.793Z,101187.88
2023-03-02T05:55:40.761Z,101184.38
2023-03-02T05:58:09.290Z,101183.50
2023-03-02T06:00:36.357Z,101185.38
2023-03-02T06:03:03.593Z,101181.00
2023-03-02T06:05:30.557Z,101187.16
2023-03-02T06:07:57.666Z,101183.03
2023-03-02T06:10:25.326Z,101191.03
2023-03-02T06:12:52.535Z,101198.94
2023-03-02T06:15:20.150Z,101207.06
2023-03-02T06:17:47.426Z,101209.66
2023-03-02T06:20:15.400Z,101207.06
2023-03-02T06:22:45.379Z,101206.06
2023-03-02T06:25:15.385Z,101209.66
2023-03-02T06:27:42.708Z,101204.34
2023-03-02T06:30:13.295Z,101218.41
2023-03-02T06:32:40.393Z,101214.81
2023-03-02T06:35:08.749Z,101217.47
2023-03-02T06:37:35.808Z,101212.94
2023-03-02T06:40:03.453Z,101218.81
2023-03-02T06:42:30.377Z,101222.97
2023-03-02T06:44:57.358Z,101231.41
2023-03-02T06:47:25.384Z,101229.38
2023-03-02T06:49:52.478Z,101231.50
2023-03-02T06:52:19.424Z,101234.81
2023-03-02T06:54:46.302Z,101231.75
2023-03-02T06:57:13.241Z,101234.88
2023-03-02T06:59:40.239Z,101229.28
2023-03-02T07:02:07.549Z,101244.00
2023-03-02T07:04:34.432Z,101241.81
2023-03-02T07:07:01.463Z,101243.31
2023-03-02T07:09:30.941Z,101244.69
2023-03-02T07:11:58.008Z,101249.84
2023-03-02T07:14:24.936Z,101249.00
2023-03-02T07:16:52.177Z,101246.97
2023-03-02T07:19:19.185Z,101258.34
2023-03-02T07:21:46.127Z,101266.22
2023-03-02T07:24:13.091Z,101265.19
2023-03-02T07:26:40.021Z,101274.97
2023-03-02T07:29:06.949Z,101274.88
2023-03-02T07:31:34.163Z,101282.84
2023-03-02T07:34:01.287Z,101281.22
2023-03-02T07:36:28.157Z,101283.94
2023-03-02T07:38:55.173Z,101285.66
2023-03-02T07:41:22.958Z,101287.22
2023-03-02T07:43:49.941Z,101292.38
2023-03-02T07:46:16.933Z,101293.91
2023-03-02T07:48:44.403Z,101298.91
2023-03-02T07:51:11.325Z,101296.19
2023-03-02T07:53:38.427Z,101291.28
2023-03-02T07:56:10.246Z,101290.25
2023-03-02T07:58:38.080Z,101296.09
2023-03-02T08:01:06.773Z,101293.91
2023-03-02T08:03:33.739Z,101296.25
2023-03-02T08:06:10.484Z,101299.50
2023-03-02T08:08:37.999Z,101307.41
2023-03-02T08:11:23.023Z,101297.28
2023-03-02T08:13:49.894Z,101301.59
2023-03-02T08:16:16.934Z,101301.50
2023-03-02T08:18:44.443Z,101303.69
2023-03-02T08:21:16.537Z,101307.72
2023-03-02T08:23:43.781Z,101307.72
2023-03-02T08:26:13.877Z,101311.50
2023-03-02T08:28:42.153Z,101314.59
2023-03-02T08:31:10.230Z,101312.53
2023-03-02T08:33:37.735Z,101314.75
2023-03-02T08:36:12.728Z,101316.13
2023-03-02T08:38:40.230Z,101316.75
2023-03-02T08:41:10.458Z,101317.88
2023-03-02T08:43:37.721Z,101324.66
2023-03-02T08:46:05.310Z,101328.69
2023-03-02T08:48:32.713Z,101324.56
2023-03-02T08:51:02.393Z,101322.88
2023-03-02T08:53:31.202Z,101324.63
2023-03-02T08:55:58.353Z,101338.16
2023-03-02T08:58:25.553Z,101342.19
2023-03-02T09:00:52.613Z,101344.84
2023-03-02T09:03:19.726Z,101346.72
2023-03-02T09:05:46.848Z,101345.78
2023-03-02T09:08:14.134Z,101344.75
2023-03-02T09:10:41.101Z,101351.53
2023-03-02T09:13:08.738Z,101346.91
2023-03-02T09:15:35.738Z,101352.34
2023-03-02T09:18:02.658Z,101343.53
2023-03-02T09:20:29.581Z,101347.03
2023-03-02T09:22:56.469Z,101358.44
2023-03-02T09:25:23.370Z,101348.88
2023-03-02T09:27:50.247Z,101352.97
2023-03-02T09:30:17.342Z,101354.31
2023-03-02T09:32:44.477Z,101351.09
2023-03-02T09:35:11.908Z,101351.94
2023-03-02T09:37:39.120Z,101353.75
2023-03-02T09:40:16.713Z,101348.25
2023-03-02T09:42:55.624Z,101355.22
2023-03-02T09:45:41.162Z,101353.44
2023-03-02T09:48:32.510Z,101351.16
2023-03-02T09:51:43.684Z,101345.06
2023-03-02T09:54:21.326Z,101351.34
2023-03-02T09:56:55.228Z,101347.88
2023-03-02T10:00:01.618Z,101349.59
2023-03-02T10:02:47.440Z,101355.06
2023-03-02T10:05:20.707Z,101347.28
2023-03-02T10:07:48.637Z,101358.56
2023-03-02T10:10:18.138Z,101347.59
2023-03-02T10:13:11.376Z,101356.91
2023-03-02T10:16:05.966Z,101354.22
2023-03-02T10:18:47.183Z,101357.66
2023-03-02T10:21:44.177Z,101349.38
2023-03-02T10:24:29.769Z,101348.38
2023-03-02T10:27:31.531Z,101351.06
2023-03-02T10:30:20.017Z,101348.09
2023-03-02T10:32:50.574Z,101349.38
2023-03-02T10:35:23.678Z,101346.44
2023-03-02T10:38:17.398Z,101348.16
2023-03-02T10:40:48.671Z,101350.84
2023-03-02T10:43:23.700Z,101353.75
2023-03-02T10:46:02.295Z,101346.59
2023-03-02T10:48:29.632Z,101356.88
2023-03-02T10:50:58.975Z,101347.50
2023-03-02T10:53:26.478Z,101347.88
2023-03-02T10:55:54.022Z,101347.78
2023-03-02T10:58:25.981Z,101356.19
2023-03-02T11:01:17.642Z,101351.81
2023-03-02T11:04:04.904Z,101358.88
2023-03-02T11:06:32.134Z,101355.69
2023-03-02T11:09:07.537Z,101358.63
2023-03-02T11:11:35.179Z,101353.41
2023-03-02T11:14:19.635Z,101354.47
2023-03-02T11:16:46.527Z,101349.38
2023-03-02T11:19:17.730Z,101345.59
2023-03-02T11:21:52.746Z,101352.56
2023-03-02T11:24:46.784Z,101349.06
2023-03-02T11:27:20.247Z,101348.28
2023-03-02T11:30:03.110Z,101344.38
2023-03-02T11:32:41.986Z,101342.03
2023-03-02T11:35:30.741Z,101344.53
2023-03-02T11:38:11.395Z,101343.09
2023-03-02T11:40:53.731Z,101346.94
2023-03-02T11:43:20.700Z,101333.38
2023-03-02T11:45:57.003Z,101338.75
2023-03-02T11:48:32.624Z,101340.16
2023-03-02T11:51:11.924Z,101336.66
2023-03-02T11:54:03.189Z,101338.88
2023-03-02T11:56:36.853Z,101339.00
2023-03-02T11:59:11.750Z,101330.59
2023-03-02T12:01:40.466Z,101325.25
2023-03-02T12:04:35.141Z,101329.81
2023-03-02T12:07:16.719Z,101321.50
2023-03-02T12:09:43.691Z,101313.41
2023-03-02T12:12:19.212Z,101328.25
2023-03-02T12:14:46.154Z,101318.03
2023-03-02T12:17:32.474Z,101313.06
2023-03-02T12:20:10.701Z,101306.75
2023-03-02T12:22:37.979Z,101314.03
2023-03-02T12:25:07.928Z,101304.19
2023-03-02T12:27:42.144Z,101300.31
2023-03-02T12:30:28.577Z,101296.59
2023-03-02T12:33:20.716Z,101290.03
2023-03-02T12:35:50.976Z,101285.28
2023-03-02T12:38:28.384Z,101278.47
2023-03-02T12:41:17.553Z,101274.84
2023-03-02T12:43:56.620Z,101271.53
2023-03-02T12:46:28.629Z,101266.91
2023-03-02T12:49:01.070Z,101265.16
2023-03-02T12:51:32.440Z,101254.31
2023-03-02T12:54:04.909Z,101251.03
2023-03-02T12:56:31.960Z,101248.81
2023-03-02T12:58:59.558Z,101246.63
2023-03-02T13:01:30.131Z,101246.63
2023-03-02T13:03:57.655Z,101239.31
2023-03-02T13:06:29.910Z,101249.69
2023-03-02T13:08:58.914Z,101238.56
2023-03-02T13:11:37.197Z,101227.66
2023-03-02T13:14:19.640Z,101228.88
2023-03-02T13:17:04.675Z,101223.13
2023-03-02T13:19:34.138Z,101216.91
2023-03-02T13:22:02.083Z,101216.41
2023-03-02T13:24:31.696Z,101215.78
2023-03-02T13:27:15.667Z,101217.75
2023-03-02T13:29:42.692Z,101212.28
2023-03-02T13:32:17.487Z,101212.56
2023-03-02T13:34:50.411Z,101209.38
2023-03-02T13:37:43.849Z,101208.63
2023-03-02T13:40:24.388Z,101205.91
2023-03-02T13:42:51.483Z,101206.88
2023-03-02T13:45:25.028Z,101210.50
2023-03-02T13:47:53.042Z,101200.50
2023-03-02T13:50:38.209Z,101199.84
2023-03-02T13:53:07.228Z,101195.31
2023-03-02T13:55:35.515Z,101188.81
2023-03-02T13:58:03.348Z,101192.22
2023-03-02T14:00:35.230Z,101196.84
2023-03-02T14:03:02.280Z,101180.19
2023-03-02T14:05:35.767Z,101182.41
2023-03-02T14:08:03.071Z,101174.59
2023-03-02T14:10:30.048Z,101179.25
2023-03-02T14:13:02.720Z,101178.75
2023-03-02T14:15:29.905Z,101172.63
2023-03-02T14:17:56.971Z,101170.97
2023-03-02T14:20:24.011Z,101171.19
2023-03-02T14:22:50.876Z,101164.78
2023-03-02T14:25:18.057Z,101160.59
2023-03-02T14:27:47.267Z,101163.94
2023-03-02T14:30:18.680Z,101163.53
2023-03-02T14:32:46.448Z,101157.25
2023-03-02T14:35:15.876Z,101164.78
2023-03-02T14:37:48.602Z,101159.34
2023-03-02T14:40:21.669Z,101158.38
2023-03-02T14:42:48.840Z,101154.66
2023-03-02T14:45:16.574Z,101149.41
2023-03-02T14:47:43.590Z,101146.47
2023-03-02T14:50:12.182Z,101148.25
2023-03-02T14:52:43.110Z,101156.84
2023-03-02T14:55:18.460Z,101164.41
2023-03-02T14:57:45.634Z,101152.00
2023-03-02T15:00:15.579Z,101154.47
2023-03-02T15:02:42.955Z,101152.97
2023-03-02T15:05:10.696Z,101151.44
2023-03-02T15:07:39.060Z,101150.91
2023-03-02T15:10:07.297Z,101153.03
2023-03-02T15:12:34.609Z,101150.97
2023-03-02T15:15:01.498Z,101155.22
2023-03-02T15:17:28.485Z,101162.09
2023-03-02T15:19:55.428Z,101152.84
2023-03-02T15:22:22.405Z,101149.50
2023-03-02T15:24:49.338Z,101159.16
2023-03-02T15:27:17.887Z,101152.81
2023-03-02T15:29:46.565Z,101156.47
2023-03-02T15:32:14.050Z,101166.34
2023-03-02T15:34:41.428Z,101163.84
2023-03-02T15:37:10.545Z,101157.78
2023-03-02T15:39:38.130Z,101164.69
2023-03-02T15:42:06.023Z,101168.13
2023-03-02T15:44:33.601Z,101166.22
2023-03-02T15:47:01.824Z,101168.16
2023-03-02T15:49:31.682Z,101163.53
2023-03-02T15:51:58.972Z,101162.09
2023-03-02T15:54:27.160Z,101165.03
2023-03-02T15:56:54.373Z,101174.53
2023-03-02T15:59:26.902Z,101166.13
2023-03-02T16:01:54.674Z,101166.72
2023-03-02T16:04:21.852Z,101174.75
2023-03-02T16:06:49.044Z,101174.16
2023-03-02T16:09:19.290Z,101175.50
2023-03-02T16:11:49.235Z,101180.56
2023-03-02T16:14:16.283Z,101176.31
2023-03-02T16:16:45.420Z,101176.09
2023-03-02T16:19:14.538Z,101176.88
2023-03-02T16:21:41.730Z,101177.84
2023-03-02T16:24:09.271Z,101180.50
2023-03-02T16:26:38.302Z,101176.59
2023-03-02T16:29:08.107Z,101178.50
2023-03-02T16:31:38.051Z,101187.50
2023-03-02T16:34:09.528Z,101184.47
2023-03-02T16:36:38.694Z,101186.72
2023-03-02T16:39:07.281Z,101185.53
2023-03-02T16:41:35.159Z,101189.41
2023-03-02T16:44:02.202Z,101197.59
2023-03-02T16:46:31.780Z,101190.34
2023-03-02T16:48:59.049Z,101193.75
2023-03-02T16:51:26.082Z,101198.03
2023-03-02T16:53:52.946Z,101198.38
2023-03-02T16:56:20.195Z,101199.34
2023-03-02T16:58:47.294Z,101204.63
2023-03-02T17:01:18.114Z,101209.03
2023-03-02T17:03:46.600Z,101214.00
2023-03-02T17:06:15.972Z,101211.44
2023-03-02T17:08:43.115Z,101222.13
2023-03-02T17:11:11.145Z,101222.34
2023-03-02T17:13:38.352Z,101218.94
2023-03-02T17:16:05.909Z,101220.22
2023-03-02T17:18:33.790Z,101217.66
2023-03-02T17:21:01.498Z,101225.81
2023-03-02T17:23:34.180Z,101226.25
2023-03-02T17:26:01.099Z,101224.78
2023-03-02T17:28:28.163Z,101239.34
2023-03-02T17:30:55.267Z,101241.72
2023-03-02T17:33:22.379Z,101236.81
2023-03-02T17:35:50.206Z,101244.34
2023-03-02T17:38:17.187Z,101252.03
2023-03-02T17:40:44.363Z,101257.38
2023-03-02T17:43:12.577Z,101253.22
2023-03-02T17:45:40.567Z,101255.66
2023-03-02T17:48:07.811Z,101255.03
2023-03-02T17:50:34.946Z,101261.88
2023-03-02T17:53:03.060Z,101263.56
2023-03-02T17:55:30.549Z,101266.34
2023-03-02T17:57:57.688Z,101264.16
2023-03-02T18:00:25.010Z,101264.81
2023-03-02T18:02:52.479Z,101262.34
2023-03-02T18:05:19.701Z,101275.50
2023-03-02T18:07:46.606Z,101274.63
2023-03-02T18:10:14.420Z,101276.75
2023-03-02T18:12:41.284Z,101279.75
2023-03-02T18:15:09.229Z,101281.25
2023-03-02T18:17:36.469Z,101288.53
2023-03-02T18:20:04.105Z,101288.22
2023-03-02T18:22:31.251Z,101290.75
2023-03-02T18:25:01.941Z,101292.34
2023-03-02T18:27:28.929Z,101290.19
2023-03-02T18:29:55.875Z,101295.63
2023-03-02T18:32:23.748Z,101297.19
2023-03-02T18:34:53.634Z,101302.97
2023-03-02T18:37:21.028Z,101302.91
2023-03-02T18:39:49.233Z,101298.84
2023-03-02T18:42:16.498Z,101310.97
2023-03-02T18:44:43.412Z,101311.72
2023-03-02T18:47:15.768Z,101321.44
2023-03-02T18:49:42.806Z,101321.63
2023-03-02T18:52:10.017Z,101318.22
2023-03-02T18:54:36.954Z,101322.63
2023-03-02T18:57:04.052Z,101327.19
2023-03-02T18:59:31.097Z,101332.50
2023-03-02T19:01:58.088Z,101333.66
2023-03-02T19:04:26.757Z,101337.88
2023-03-02T19:06:56.204Z,101337.78
2023-03-02T19:09:23.727Z,101336.06
2023-03-02T19:11:50.898Z,101340.75
2023-03-02T19:14:18.445Z,101341.50
2023-03-02T19:16:46.389Z,101348.47
2023-03-02T19:19:13.855Z,101349.72
2023-03-02T19:21:41.120Z,101352.66
2023-03-02T19:24:08.944Z,101344.66
2023-03-02T19:26:36.261Z,101348.38
2023-03-02T19:29:04.389Z,101357.31
2023-03-02T19:31:32.974Z,101350.47
2023-03-02T19:34:00.960Z,101354.28
2023-03-02T19:36:31.069Z,101356.00
2023-03-02T19:38:58.325Z,101350.88
2023-03-02T19:41:25.237Z,101358.09
2023-03-02T19:43:52.188Z,101355.34
2023-03-02T19:46:19.293Z,101366.97
2023-03-02T19:48:46.251Z,101360.78
2023-03-02T19:51:15.179Z,101364.59
2023-03-02T19:53:43.678Z,101361.91
2023-03-02T19:56:14.368Z,101357.78
2023-03-02T19:58:47.940Z,101368.53
2023-03-02T20:01:21.628Z,101365.22
2023-03-02T20:03:51.827Z,101357.50
2023-03-02T20:06:21.093Z,101366.44
2023-03-02T20:08:49.132Z,101364.91
2023-03-02T20:11:16.633Z,101364.91
2023-03-02T20:13:44.363Z,101373.00
2023-03-02T20:16:13.985Z,101369.69
2023-03-02T20:18:42.395Z,101377.66
2023-03-02T20:21:09.416Z,101378.72
2023-03-02T20:23:36.820Z,101379.75
2023-03-02T20:26:05.529Z,101382.50
2023-03-02T20:28:33.252Z,101382.78
2023-03-02T20:31:03.942Z,101377.66
2023-03-02T20:33:36.872Z,101387.53
2023-03-02T20:36:04.775Z,101394.59
2023-03-02T20:38:42.846Z,101389.66
2023-03-02T20:41:11.977Z,101387.94
2023-03-02T20:43:40.820Z,101388.09
2023-03-02T20:46:09.998Z,101392.75
2023-03-02T20:48:37.139Z,101388.47
2023-03-02T20:51:04.558Z,101399.50
2023-03-02T20:53:31.717Z,101404.16
2023-03-02T20:55:58.951Z,101410.50
2023-03-02T20:58:25.919Z,101405.72
2023-03-02T21:00:53.988Z,101412.75
2023-03-02T21:03:21.017Z,101418.09
2023-03-02T21:05:49.107Z,101409.50
2023-03-02T21:08:16.257Z,101413.13
2023-03-02T21:10:44.176Z,101406.59
2023-03-02T21:13:12.024Z,101409.44
2023-03-02T21:15:41.219Z,101419.31
2023-03-02T21:18:08.592Z,101421.38
2023-03-02T21:20:36.269Z,101416.25
2023-03-02T21:23:07.028Z,101429.75
2023-03-02T21:25:34.296Z,101423.97
2023-03-02T21:28:01.630Z,101431.19
2023-03-02T21:30:35.770Z,101431.34
2023-03-02T21:33:03.844Z,101420.09
2023-03-02T21:35:31.222Z,101426.41
2023-03-02T21:37:59.737Z,101423.63
2023-03-02T21:40:31.917Z,101421.09
2023-03-02T21:43:00.578Z,101420.56
2023-03-02T21:45:29.018Z,101423.41
2023-03-02T21:47:56.123Z,101413.16
2023-03-02T21:50:27.114Z,101422.09
2023-03-02T21:52:55.686Z,101418.59
2023-03-02T21:55:22.844Z,101423.81
2023-03-02T21:57:49.915Z,101426.66
2023-03-02T22:00:24.894Z,101418.81
2023-03-02T22:02:51.900Z,101417.41
2023-03-02T22:05:20.077Z,101420.50
2023-03-02T22:07:47.906Z,101414.47
2023-03-02T22:10:38.928Z,101413.78
2023-03-02T22:13:17.615Z,101417.72
2023-03-02T22:15:46.462Z,101417.03
2023-03-02T22:18:19.496Z,101417.97
2023-03-02T22:20:51.796Z,101421.59
2023-03-02T22:23:22.390Z,101415.66
2023-03-02T22:25:52.489Z,101415.81
2023-03-02T22:28:22.132Z,101419.25
2023-03-02T22:30:51.063Z,101413.94
2023-03-02T22:33:24.271Z,101405.16
2023-03-02T22:35:54.278Z,101409.72
2023-03-02T22:38:29.390Z,101417.09
2023-03-02T22:40:57.241Z,101411.84
2023-03-02T22:43:29.562Z,101410.28
2023-03-02T22:46:17.622Z,101403.94
2023-03-02T22:48:50.378Z,101410.13
2023-03-02T22:51:20.109Z,101410.97
2023-03-02T22:53:59.868Z,101413.63
2023-03-02T22:56:34.103Z,101416.47
2023-03-02T22:59:25.999Z,101404.28
2023-03-02T23:01:58.214Z,101401.00
2023-03-02T23:04:31.005Z,101415.06
2023-03-02T23:07:00.742Z,101409.75
2023-03-02T23:09:31.797Z,101408.19
2023-03-02T23:12:02.397Z,101408.06
2023-03-02T23:14:39.477Z,101413.38
2023-03-02T23:17:14.458Z,101415.22
2023-03-02T23:19:41.514Z,101409.28
2023-03-02T23:22:09.437Z,101413.69
2023-03-02T23:24:36.934Z,101414.00
2023-03-02T23:27:04.024Z,101415.84
2023-03-02T23:29:32.160Z,101411.56
2023-03-02T23:31:59.283Z,101421.28
2023-03-02T23:34:26.491Z,101416.03
2023-03-02T23:36:53.384Z,101413.53
2023-03-02T23:39:20.410Z,101414.78
2023-03-02T23:41:47.778Z,101412.13
2023-03-02T23:44:14.962Z,101411.38
2023-03-02T23:46:41.961Z,101416.97
2023-03-02T23:49:08.886Z,101417.75
2023-03-02T23:51:35.775Z,101409.19
2023-03-02T23:54:04.651Z,101410.13
2023-03-02T23:56:31.750Z,101412.91
2023-03-02T23:58:58.807Z,101413.00
